sensor_id;sensor_type;location;lat;lon;timestamp;pressure;altitude;pressure_sealevel;temperature;humidity
11099;BME280;12223;42.650;23.364;2023-06-22T00:00:55;95111.22;;;18.00;100.00
11099;BME280;12223;42.650;23.364;2023-06-22T00:03:23;95138.81;;;18.11;100.00
11099;BME280;12223;42.650;23.364;2023-06-22T00:05:51;95138.47;;;18.02;100.00
11099;BME280;12223;42.650;23.364;2023-06-22T00:08:19;95132.56;;;17.95;100.00
11099;BME280;12223;42.650;23.364;2023-06-22T00:10:46;95139.75;;;17.95;100.00
11099;BME280;12223;42.650;23.364;2023-06-22T00:13:13;95141.66;;;17.99;100.00
11099;BME280;12223;42.650;23.364;2023-06-22T00:15:41;95135.97;;;17.91;100.00
11099;BME280;12223;42.650;23.364;2023-06-22T00:18:10;95136.31;;;17.99;100.00
11099;BME280;12223;42.650;23.364;2023-06-22T00:20:38;95135.72;;;17.92;100.00
11099;BME280;12223;42.650;23.364;2023-06-22T00:23:06;95125.03;;;17.92;100.00
11099;BME280;12223;42.650;23.364;2023-06-22T00:25:37;95126.91;;;17.92;100.00
11099;BME280;12223;42.650;23.364;2023-06-22T00:28:06;95113.53;;;17.92;100.00
11099;BME280;12223;42.650;23.364;2023-06-22T00:30:33;95113.50;;;17.87;100.00
11099;BME280;12223;42.650;23.364;2023-06-22T00:33:01;95100.38;;;17.80;100.00
11099;BME280;12223;42.650;23.364;2023-06-22T00:35:29;95098.41;;;17.71;100.00
11099;BME280;12223;42.650;23.364;2023-06-22T00:37:56;95105.34;;;17.66;100.00
11099;BME280;12223;42.650;23.364;2023-06-22T00:40:26;95107.22;;;17.71;100.00
11099;BME280;12223;42.650;23.364;2023-06-22T00:42:54;95103.25;;;17.74;100.00
11099;BME280;12223;42.650;23.364;2023-06-22T00:45:20;95093.66;;;17.78;100.00
11099;BME280;12223;42.650;23.364;2023-06-22T00:47:50;95100.94;;;17.82;100.00
11099;BME280;12223;42.650;23.364;2023-06-22T00:50:20;95093.44;;;17.84;100.00
11099;BME280;12223;42.650;23.364;2023-06-22T00:52:52;95088.66;;;17.86;100.00
11099;BME280;12223;42.650;23.364;2023-06-22T00:55:24;95094.81;;;17.87;100.00
11099;BME280;12223;42.650;23.364;2023-06-22T00:57:52;95102.06;;;17.96;100.00
11099;BME280;12223;42.650;23.364;2023-06-22T01:00:22;95097.28;;;17.98;100.00
11099;BME280;12223;42.650;23.364;2023-06-22T01:02:50;95095.06;;;17.85;100.00
11099;BME280;12223;42.650;23.364;2023-06-22T01:05:18;95099.94;;;17.93;100.00
11099;BME280;12223;42.650;23.364;2023-06-22T01:07:57;95112.47;;;17.93;100.00
11099;BME280;12223;42.650;23.364;2023-06-22T01:10:31;95110.09;;;17.96;100.00
11099;BME280;12223;42.650;23.364;2023-06-22T01:13:06;95103.94;;;17.96;100.00
11099;BME280;12223;42.650;23.364;2023-06-22T01:15:38;95100.16;;;17.87;100.00
11099;BME280;12223;42.650;23.364;2023-06-22T01:18:09;95094.09;;;17.64;100.00
11099;BME280;12223;42.650;23.364;2023-06-22T01:20:37;95090.00;;;17.57;100.00
11099;BME280;12223;42.650;23.364;2023-06-22T01:23:13;95081.38;;;17.45;100.00
11099;BME280;12223;42.650;23.364;2023-06-22T01:25:47;95076.78;;;17.40;100.00
11099;BME280;12223;42.650;23.364;2023-06-22T01:28:24;95087.59;;;17.55;100.00
11099;BME280;12223;42.650;23.364;2023-06-22T01:30:55;95091.47;;;17.70;100.00
11099;BME280;12223;42.650;23.364;2023-06-22T01:33:33;95072.88;;;17.53;100.00
11099;BME280;12223;42.650;23.364;2023-06-22T01:36:01;95100.59;;;17.74;100.00
11099;BME280;12223;42.650;23.364;2023-06-22T01:38:29;95112.09;;;17.79;100.00
11099;BME280;12223;42.650;23.364;2023-06-22T01:40:57;95100.59;;;17.74;100.00
11099;BME280;12223;42.650;23.364;2023-06-22T01:43:26;95080.13;;;17.57;100.00
11099;BME280;12223;42.650;23.364;2023-06-22T01:45:55;95091.13;;;17.61;100.00
11099;BME280;12223;42.650;23.364;2023-06-22T01:48:22;95092.22;;;17.65;100.00
11099;BME280;12223;42.650;23.364;2023-06-22T01:50:51;95109.44;;;17.79;100.00
11099;BME280;12223;42.650;23.364;2023-06-22T01:53:20;95105.47;;;17.82;100.00
11099;BME280;12223;42.650;23.364;2023-06-22T01:55:47;95098.38;;;17.65;100.00
11099;BME280;12223;42.650;23.364;2023-06-22T01:58:14;95118.50;;;17.78;100.00
11099;BME280;12223;42.650;23.364;2023-06-22T02:00:46;95107.00;;;17.78;100.00
11099;BME280;12223;42.650;23.364;2023-06-22T02:03:19;95101.66;;;17.78;100.00
11099;BME280;12223;42.650;23.364;2023-06-22T02:05:55;95112.06;;;17.74;100.00
11099;BME280;12223;42.650;23.364;2023-06-22T02:08:25;95120.13;;;17.79;100.00
11099;BME280;12223;42.650;23.364;2023-06-22T02:10:55;95127.94;;;17.86;100.00
11099;BME280;12223;42.650;23.364;2023-06-22T02:13:24;95132.44;;;17.80;100.00
11099;BME280;12223;42.650;23.364;2023-06-22T02:15:51;95115.00;;;17.73;100.00
11099;BME280;12223;42.650;23.364;2023-06-22T02:18:19;95107.63;;;17.58;100.00
11099;BME280;12223;42.650;23.364;2023-06-22T02:20:46;95106.03;;;17.57;100.00
11099;BME280;12223;42.650;23.364;2023-06-22T02:23:13;95115.81;;;17.46;100.00
11099;BME280;12223;42.650;23.364;2023-06-22T02:25:42;95118.44;;;17.41;100.00
11099;BME280;12223;42.650;23.364;2023-06-22T02:28:10;95110.59;;;17.29;100.00
11099;BME280;12223;42.650;23.364;2023-06-22T02:30:37;95116.13;;;17.23;100.00
11099;BME280;12223;42.650;23.364;2023-06-22T02:33:04;95112.84;;;17.16;100.00
11099;BME280;12223;42.650;23.364;2023-06-22T02:35:32;95085.50;;;17.04;100.00
11099;BME280;12223;42.650;23.364;2023-06-22T02:38:02;95079.94;;;17.05;100.00
11099;BME280;12223;42.650;23.364;2023-06-22T02:40:29;95094.03;;;17.01;100.00
11099;BME280;12223;42.650;23.364;2023-06-22T02:42:56;95107.16;;;17.07;100.00
11099;BME280;12223;42.650;23.364;2023-06-22T02:45:27;95110.09;;;17.06;100.00
11099;BME280;12223;42.650;23.364;2023-06-22T02:47:54;95106.16;;;17.13;100.00
11099;BME280;12223;42.650;23.364;2023-06-22T02:50:21;95111.56;;;17.18;100.00
11099;BME280;12223;42.650;23.364;2023-06-22T02:52:49;95108.31;;;17.16;100.00
11099;BME280;12223;42.650;23.364;2023-06-22T02:55:16;95119.59;;;17.23;100.00
11099;BME280;12223;42.650;23.364;2023-06-22T02:57:43;95099.50;;;17.16;100.00
11099;BME280;12223;42.650;23.364;2023-06-22T03:00:13;95119.19;;;17.37;100.00
11099;BME280;12223;42.650;23.364;2023-06-22T03:02:43;95126.00;;;17.22;100.00
11099;BME280;12223;42.650;23.364;2023-06-22T03:05:11;95123.28;;;17.17;100.00
11099;BME280;12223;42.650;23.364;2023-06-22T03:07:39;95122.19;;;17.13;100.00
11099;BME280;12223;42.650;23.364;2023-06-22T03:10:11;95109.41;;;17.20;100.00
11099;BME280;12223;42.650;23.364;2023-06-22T03:12:40;95119.28;;;17.47;100.00
11099;BME280;12223;42.650;23.364;2023-06-22T03:15:09;95125.44;;;17.74;100.00
11099;BME280;12223;42.650;23.364;2023-06-22T03:17:37;95138.53;;;18.07;100.00
11099;BME280;12223;42.650;23.364;2023-06-22T03:20:06;95157.22;;;18.49;100.00
11099;BME280;12223;42.650;23.364;2023-06-22T03:22:36;95165.75;;;18.88;100.00
11099;BME280;12223;42.650;23.364;2023-06-22T03:25:05;95177.13;;;19.21;100.00
11099;BME280;12223;42.650;23.364;2023-06-22T03:27:37;95192.78;;;19.70;100.00
11099;BME280;12223;42.650;23.364;2023-06-22T03:30:06;95189.09;;;20.16;100.00
11099;BME280;12223;42.650;23.364;2023-06-22T03:32:34;95174.56;;;20.58;100.00
11099;BME280;12223;42.650;23.364;2023-06-22T03:35:02;95201.03;;;21.00;100.00
11099;BME280;12223;42.650;23.364;2023-06-22T03:37:29;95200.16;;;21.30;100.00
11099;BME280;12223;42.650;23.364;2023-06-22T03:39:56;95213.63;;;21.74;100.00
11099;BME280;12223;42.650;23.364;2023-06-22T03:42:23;95186.38;;;22.24;100.00
11099;BME280;12223;42.650;23.364;2023-06-22T03:44:53;95188.84;;;22.78;98.51
11099;BME280;12223;42.650;23.364;2023-06-22T03:47:20;95210.63;;;23.53;91.71
11099;BME280;12223;42.650;23.364;2023-06-22T03:49:47;95199.03;;;24.09;85.78
11099;BME280;12223;42.650;23.364;2023-06-22T03:52:14;95204.56;;;24.69;79.87
11099;BME280;12223;42.650;23.364;2023-06-22T03:54:40;95208.25;;;25.33;75.90
11099;BME280;12223;42.650;23.364;2023-06-22T03:57:08;95219.03;;;25.74;72.17
11099;BME280;12223;42.650;23.364;2023-06-22T03:59:36;95219.22;;;26.27;68.16
11099;BME280;12223;42.650;23.364;2023-06-22T04:02:05;95212.81;;;26.67;65.10
11099;BME280;12223;42.650;23.364;2023-06-22T04:04:34;95221.34;;;27.14;61.95
11099;BME280;12223;42.650;23.364;2023-06-22T04:07:01;95223.34;;;27.31;60.54
11099;BME280;12223;42.650;23.364;2023-06-22T04:09:28;95209.34;;;27.06;59.98
11099;BME280;12223;42.650;23.364;2023-06-22T04:11:55;95229.25;;;26.93;60.57
11099;BME280;12223;42.650;23.364;2023-06-22T04:14:22;95230.66;;;26.91;60.37
11099;BME280;12223;42.650;23.364;2023-06-22T04:16:49;95221.84;;;27.16;60.15
11099;BME280;12223;42.650;23.364;2023-06-22T04:19:18;95217.41;;;27.59;58.82
11099;BME280;12223;42.650;23.364;2023-06-22T04:21:46;95218.94;;;28.34;56.36
11099;BME280;12223;42.650;23.364;2023-06-22T04:24:13;95208.78;;;28.95;53.23
11099;BME280;12223;42.650;23.364;2023-06-22T04:26:41;95209.34;;;29.56;50.56
11099;BME280;12223;42.650;23.364;2023-06-22T04:29:10;95195.44;;;30.08;49.45
11099;BME280;12223;42.650;23.364;2023-06-22T04:31:37;95198.09;;;30.70;47.07
11099;BME280;12223;42.650;23.364;2023-06-22T04:34:05;95196.72;;;30.97;46.00
11099;BME280;12223;42.650;23.364;2023-06-22T04:36:36;95190.41;;;31.53;44.39
11099;BME280;12223;42.650;23.364;2023-06-22T04:39:06;95200.81;;;32.12;43.03
11099;BME280;12223;42.650;23.364;2023-06-22T04:41:35;95199.72;;;32.41;42.08
11099;BME280;12223;42.650;23.364;2023-06-22T04:44:09;95190.28;;;32.94;41.23
11099;BME280;12223;42.650;23.364;2023-06-22T04:46:38;95197.72;;;33.72;39.80
11099;BME280;12223;42.650;23.364;2023-06-22T04:49:06;95203.16;;;34.39;37.32
11099;BME280;12223;42.650;23.364;2023-06-22T04:51:39;95202.28;;;35.15;36.30
11099;BME280;12223;42.650;23.364;2023-06-22T04:54:08;95199.63;;;35.91;34.53
11099;BME280;12223;42.650;23.364;2023-06-22T04:56:36;95205.31;;;36.61;33.12
11099;BME280;12223;42.650;23.364;2023-06-22T04:59:06;95208.50;;;36.07;33.06
11099;BME280;12223;42.650;23.364;2023-06-22T05:01:35;95223.69;;;35.71;33.29
11099;BME280;12223;42.650;23.364;2023-06-22T05:04:02;95223.91;;;35.85;33.09
11099;BME280;12223;42.650;23.364;2023-06-22T05:06:33;95225.06;;;35.84;32.76
11099;BME280;12223;42.650;23.364;2023-06-22T05:09:01;95227.03;;;34.57;33.81
11099;BME280;12223;42.650;23.364;2023-06-22T05:11:29;95228.69;;;34.62;34.00
11099;BME280;12223;42.650;23.364;2023-06-22T05:13:57;95219.22;;;35.40;33.36
11099;BME280;12223;42.650;23.364;2023-06-22T05:16:26;95221.34;;;36.85;31.69
11099;BME280;12223;42.650;23.364;2023-06-22T05:18:54;95216.09;;;37.51;30.33
11099;BME280;12223;42.650;23.364;2023-06-22T05:21:25;95218.13;;;38.74;28.93
11099;BME280;12223;42.650;23.364;2023-06-22T05:23:53;95220.72;;;39.43;28.15
11099;BME280;12223;42.650;23.364;2023-06-22T05:26:24;95223.00;;;39.09;27.53
11099;BME280;12223;42.650;23.364;2023-06-22T05:28:51;95217.56;;;37.78;28.68
11099;BME280;12223;42.650;23.364;2023-06-22T05:31:19;95233.91;;;35.97;31.58
11099;BME280;12223;42.650;23.364;2023-06-22T05:33:46;95233.25;;;34.74;33.42
11099;BME280;12223;42.650;23.364;2023-06-22T05:36:14;95224.06;;;33.30;36.17
11099;BME280;12223;42.650;23.364;2023-06-22T05:38:42;95237.53;;;31.99;39.81
11099;BME280;12223;42.650;23.364;2023-06-22T05:41:08;95244.97;;;30.51;42.81
11099;BME280;12223;42.650;23.364;2023-06-22T05:43:36;95247.44;;;29.65;45.55
11099;BME280;12223;42.650;23.364;2023-06-22T05:46:04;95254.94;;;29.21;47.27
11099;BME280;12223;42.650;23.364;2023-06-22T05:48:31;95244.81;;;28.40;50.76
11099;BME280;12223;42.650;23.364;2023-06-22T05:50:58;95252.75;;;28.02;55.67
11099;BME280;12223;42.650;23.364;2023-06-22T05:53:24;95257.06;;;27.86;55.44
11099;BME280;12223;42.650;23.364;2023-06-22T05:55:54;95243.16;;;27.40;56.88
11099;BME280;12223;42.650;23.364;2023-06-22T05:58:21;95237.19;;;27.60;57.36
11099;BME280;12223;42.650;23.364;2023-06-22T06:00:51;95255.59;;;27.89;55.88
11099;BME280;12223;42.650;23.364;2023-06-22T06:03:18;95237.28;;;28.03;54.62
11099;BME280;12223;42.650;23.364;2023-06-22T06:05:45;95242.44;;;28.39;53.70
11099;BME280;12223;42.650;23.364;2023-06-22T06:08:12;95245.28;;;28.68;52.80
11099;BME280;12223;42.650;23.364;2023-06-22T06:10:39;95240.63;;;28.86;51.95
11099;BME280;12223;42.650;23.364;2023-06-22T06:13:05;95241.56;;;28.99;51.97
11099;BME280;12223;42.650;23.364;2023-06-22T06:15:34;95232.09;;;29.13;52.06
11099;BME280;12223;42.650;23.364;2023-06-22T06:18:02;95228.00;;;29.28;51.52
11099;BME280;12223;42.650;23.364;2023-06-22T06:20:32;95226.75;;;29.26;50.20
11099;BME280;12223;42.650;23.364;2023-06-22T06:22:59;95231.66;;;29.49;49.43
11099;BME280;12223;42.650;23.364;2023-06-22T06:25:26;95226.09;;;29.67;48.74
11099;BME280;12223;42.650;23.364;2023-06-22T06:27:53;95230.41;;;29.68;50.03
11099;BME280;12223;42.650;23.364;2023-06-22T06:30:21;95227.41;;;29.61;47.94
11099;BME280;12223;42.650;23.364;2023-06-22T06:32:49;95228.22;;;29.61;48.14
11099;BME280;12223;42.650;23.364;2023-06-22T06:35:18;95233.03;;;29.64;48.37
11099;BME280;12223;42.650;23.364;2023-06-22T06:37:47;95230.50;;;29.59;48.30
11099;BME280;12223;42.650;23.364;2023-06-22T06:40:15;95227.75;;;29.21;49.33
11099;BME280;12223;42.650;23.364;2023-06-22T06:42:44;95225.38;;;29.02;51.54
11099;BME280;12223;42.650;23.364;2023-06-22T06:45:11;95222.94;;;29.18;51.50
11099;BME280;12223;42.650;23.364;2023-06-22T06:47:38;95207.13;;;29.58;50.11
11099;BME280;12223;42.650;23.364;2023-06-22T06:50:07;95219.31;;;29.52;49.70
11099;BME280;12223;42.650;23.364;2023-06-22T06:52:35;95211.88;;;29.23;51.18
11099;BME280;12223;42.650;23.364;2023-06-22T06:55:05;95201.88;;;29.06;51.26
11099;BME280;12223;42.650;23.364;2023-06-22T06:57:37;95202.72;;;29.28;50.41
11099;BME280;12223;42.650;23.364;2023-06-22T07:00:05;95207.53;;;29.31;51.38
11099;BME280;12223;42.650;23.364;2023-06-22T07:02:38;95204.72;;;29.56;50.23
11099;BME280;12223;42.650;23.364;2023-06-22T07:05:06;95209.16;;;29.90;49.23
11099;BME280;12223;42.650;23.364;2023-06-22T07:07:54;95205.91;;;29.68;49.30
11099;BME280;12223;42.650;23.364;2023-06-22T07:10:21;95217.63;;;29.22;49.87
11099;BME280;12223;42.650;23.364;2023-06-22T07:12:47;95212.16;;;28.92;52.46
11099;BME280;12223;42.650;23.364;2023-06-22T07:15:14;95207.88;;;28.74;54.55
11099;BME280;12223;42.650;23.364;2023-06-22T07:17:41;95199.09;;;28.60;53.19
11099;BME280;12223;42.650;23.364;2023-06-22T07:20:09;95191.56;;;28.74;52.88
11099;BME280;12223;42.650;23.364;2023-06-22T07:22:37;95204.66;;;28.89;53.10
11099;BME280;12223;42.650;23.364;2023-06-22T07:25:07;95207.38;;;28.89;53.14
11099;BME280;12223;42.650;23.364;2023-06-22T07:27:36;95198.63;;;28.75;54.93
11099;BME280;12223;42.650;23.364;2023-06-22T07:30:06;95205.31;;;28.60;56.45
11099;BME280;12223;42.650;23.364;2023-06-22T07:32:33;95208.69;;;28.49;55.79
11099;BME280;12223;42.650;23.364;2023-06-22T07:35:01;95199.78;;;28.31;56.96
11099;BME280;12223;42.650;23.364;2023-06-22T07:37:28;95204.88;;;28.15;57.66
11099;BME280;12223;42.650;23.364;2023-06-22T07:39:55;95198.47;;;28.11;59.51
11099;BME280;12223;42.650;23.364;2023-06-22T07:42:26;95206.13;;;28.09;59.03
11099;BME280;12223;42.650;23.364;2023-06-22T07:44:58;95213.78;;;27.90;60.00
11099;BME280;12223;42.650;23.364;2023-06-22T07:47:25;95209.75;;;27.62;64.26
11099;BME280;12223;42.650;23.364;2023-06-22T07:49:53;95206.47;;;27.51;61.83
11099;BME280;12223;42.650;23.364;2023-06-22T07:52:23;95208.31;;;27.55;65.86
11099;BME280;12223;42.650;23.364;2023-06-22T07:54:50;95177.09;;;27.44;66.32
11099;BME280;12223;42.650;23.364;2023-06-22T07:57:17;95201.63;;;27.79;64.86
11099;BME280;12223;42.650;23.364;2023-06-22T07:59:45;95196.03;;;27.67;64.32
11099;BME280;12223;42.650;23.364;2023-06-22T08:02:12;95204.47;;;27.65;65.23
11099;BME280;12223;42.650;23.364;2023-06-22T08:04:39;95199.50;;;27.58;67.39
11099;BME280;12223;42.650;23.364;2023-06-22T08:07:06;95190.47;;;27.97;63.63
11099;BME280;12223;42.650;23.364;2023-06-22T08:09:33;95188.69;;;28.01;64.96
11099;BME280;12223;42.650;23.364;2023-06-22T08:12:00;95183.13;;;27.81;65.45
11099;BME280;12223;42.650;23.364;2023-06-22T08:14:29;95195.72;;;28.02;64.67
11099;BME280;12223;42.650;23.364;2023-06-22T08:16:57;95190.16;;;28.33;61.73
11099;BME280;12223;42.650;23.364;2023-06-22T08:19:24;95183.75;;;28.64;60.06
11099;BME280;12223;42.650;23.364;2023-06-22T08:21:51;95187.31;;;29.02;59.26
11099;BME280;12223;42.650;23.364;2023-06-22T08:24:17;95176.06;;;29.21;59.54
11099;BME280;12223;42.650;23.364;2023-06-22T08:26:45;95174.28;;;29.34;57.09
11099;BME280;12223;42.650;23.364;2023-06-22T08:29:12;95170.56;;;29.30;57.62
11099;BME280;12223;42.650;23.364;2023-06-22T08:31:39;95163.81;;;29.44;59.02
11099;BME280;12223;42.650;23.364;2023-06-22T08:34:08;95174.06;;;29.68;52.85
11099;BME280;12223;42.650;23.364;2023-06-22T08:36:34;95172.56;;;30.00;50.19
11099;BME280;12223;42.650;23.364;2023-06-22T08:39:07;95167.13;;;30.21;49.17
11099;BME280;12223;42.650;23.364;2023-06-22T08:41:34;95177.22;;;30.00;49.61
11099;BME280;12223;42.650;23.364;2023-06-22T08:44:01;95181.34;;;30.06;48.65
11099;BME280;12223;42.650;23.364;2023-06-22T08:46:29;95186.81;;;29.76;50.55
11099;BME280;12223;42.650;23.364;2023-06-22T08:48:59;95196.44;;;29.74;52.18
11099;BME280;12223;42.650;23.364;2023-06-22T08:51:27;95188.84;;;29.58;50.69
11099;BME280;12223;42.650;23.364;2023-06-22T08:53:54;95170.75;;;28.87;51.60
11099;BME280;12223;42.650;23.364;2023-06-22T08:56:21;95176.44;;;29.02;52.77
11099;BME280;12223;42.650;23.364;2023-06-22T08:58:48;95181.66;;;29.16;52.76
11099;BME280;12223;42.650;23.364;2023-06-22T09:01:15;95169.91;;;29.33;52.74
11099;BME280;12223;42.650;23.364;2023-06-22T09:03:42;95160.25;;;29.14;54.46
11099;BME280;12223;42.650;23.364;2023-06-22T09:06:09;95162.69;;;29.07;54.16
11099;BME280;12223;42.650;23.364;2023-06-22T09:08:37;95161.16;;;28.81;54.21
11099;BME280;12223;42.650;23.364;2023-06-22T09:11:04;95159.13;;;28.60;54.57
11099;BME280;12223;42.650;23.364;2023-06-22T09:13:32;95161.03;;;28.60;56.46
11099;BME280;12223;42.650;23.364;2023-06-22T09:16:00;95161.06;;;28.51;59.03
11099;BME280;12223;42.650;23.364;2023-06-22T09:18:27;95140.28;;;28.47;58.10
11099;BME280;12223;42.650;23.364;2023-06-22T09:20:54;95156.41;;;28.60;55.45
11099;BME280;12223;42.650;23.364;2023-06-22T09:23:20;95160.69;;;28.70;54.99
11099;BME280;12223;42.650;23.364;2023-06-22T09:25:49;95157.63;;;28.71;54.04
11099;BME280;12223;42.650;23.364;2023-06-22T09:28:16;95157.03;;;28.74;53.29
11099;BME280;12223;42.650;23.364;2023-06-22T09:30:43;95152.94;;;28.98;53.73
11099;BME280;12223;42.650;23.364;2023-06-22T09:33:10;95164.84;;;29.23;52.45
11099;BME280;12223;42.650;23.364;2023-06-22T09:35:38;95167.34;;;29.36;51.74
11099;BME280;12223;42.650;23.364;2023-06-22T09:38:04;95168.28;;;29.02;48.92
11099;BME280;12223;42.650;23.364;2023-06-22T09:40:33;95171.47;;;29.04;48.48
11099;BME280;12223;42.650;23.364;2023-06-22T09:43:06;95172.69;;;29.15;47.62
11099;BME280;12223;42.650;23.364;2023-06-22T09:45:33;95163.06;;;29.27;46.20
11099;BME280;12223;42.650;23.364;2023-06-22T09:48:00;95168.34;;;29.23;45.38
11099;BME280;12223;42.650;23.364;2023-06-22T09:50:28;95152.00;;;29.32;49.43
11099;BME280;12223;42.650;23.364;2023-06-22T09:52:58;95154.00;;;29.52;49.73
11099;BME280;12223;42.650;23.364;2023-06-22T09:55:25;95160.56;;;29.51;48.45
11099;BME280;12223;42.650;23.364;2023-06-22T09:57:52;95136.59;;;29.44;48.94
11099;BME280;12223;42.650;23.364;2023-06-22T10:00:22;95143.28;;;29.47;48.93
11099;BME280;12223;42.650;23.364;2023-06-22T10:02:49;95140.91;;;29.45;48.07
11099;BME280;12223;42.650;23.364;2023-06-22T10:05:16;95136.44;;;29.41;50.38
11099;BME280;12223;42.650;23.364;2023-06-22T10:07:43;95145.88;;;29.43;50.49
11099;BME280;12223;42.650;23.364;2023-06-22T10:10:11;95135.81;;;29.65;51.20
11099;BME280;12223;42.650;23.364;2023-06-22T10:12:41;95124.72;;;29.90;48.71
11099;BME280;12223;42.650;23.364;2023-06-22T10:15:10;95132.41;;;30.30;48.37
11099;BME280;12223;42.650;23.364;2023-06-22T10:17:38;95131.38;;;30.55;46.81
11099;BME280;12223;42.650;23.364;2023-06-22T10:20:06;95126.09;;;30.83;46.67
11099;BME280;12223;42.650;23.364;2023-06-22T10:22:37;95105.41;;;30.94;45.58
11099;BME280;12223;42.650;23.364;2023-06-22T10:25:06;95128.41;;;31.17;43.53
11099;BME280;12223;42.650;23.364;2023-06-22T10:27:33;95134.00;;;31.33;41.86
11099;BME280;12223;42.650;23.364;2023-06-22T10:30:01;95126.38;;;31.39;41.95
11099;BME280;12223;42.650;23.364;2023-06-22T10:32:28;95115.22;;;31.32;41.57
11099;BME280;12223;42.650;23.364;2023-06-22T10:34:56;95130.47;;;31.21;41.62
11099;BME280;12223;42.650;23.364;2023-06-22T10:37:23;95121.91;;;30.86;42.36
11099;BME280;12223;42.650;23.364;2023-06-22T10:39:51;95126.38;;;30.57;43.88
11099;BME280;12223;42.650;23.364;2023-06-22T10:42:18;95120.88;;;30.78;42.35
11099;BME280;12223;42.650;23.364;2023-06-22T10:44:44;95105.88;;;30.96;42.04
11099;BME280;12223;42.650;23.364;2023-06-22T10:47:16;95090.56;;;31.04;42.85
11099;BME280;12223;42.650;23.364;2023-06-22T10:49:43;95118.88;;;31.48;41.25
11099;BME280;12223;42.650;23.364;2023-06-22T10:52:15;95120.00;;;31.59;40.93
11099;BME280;12223;42.650;23.364;2023-06-22T10:54:42;95114.31;;;31.52;41.45
11099;BME280;12223;42.650;23.364;2023-06-22T10:57:09;95114.19;;;31.36;41.68
11099;BME280;12223;42.650;23.364;2023-06-22T10:59:36;95107.47;;;30.85;42.15
11099;BME280;12223;42.650;23.364;2023-06-22T11:02:04;95114.59;;;30.65;42.49
11099;BME280;12223;42.650;23.364;2023-06-22T11:04:31;95116.50;;;30.53;41.19
11099;BME280;12223;42.650;23.364;2023-06-22T11:07:30;95115.91;;;30.47;40.73
11099;BME280;12223;42.650;23.364;2023-06-22T11:09:58;95103.13;;;30.72;40.78
11099;BME280;12223;42.650;23.364;2023-06-22T11:12:26;95110.59;;;30.63;40.24
11099;BME280;12223;42.650;23.364;2023-06-22T11:14:53;95092.34;;;30.75;39.74
11099;BME280;12223;42.650;23.364;2023-06-22T11:17:19;95098.06;;;31.07;39.54
11099;BME280;12223;42.650;23.364;2023-06-22T11:19:46;95078.06;;;31.15;41.83
11099;BME280;12223;42.650;23.364;2023-06-22T11:22:13;95096.94;;;31.20;41.06
11099;BME280;12223;42.650;23.364;2023-06-22T11:24:41;95097.25;;;30.94;42.72
11099;BME280;12223;42.650;23.364;2023-06-22T11:27:08;95097.13;;;30.79;41.06
11099;BME280;12223;42.650;23.364;2023-06-22T11:29:35;95091.22;;;30.89;39.37
11099;BME280;12223;42.650;23.364;2023-06-22T11:32:05;95083.72;;;30.86;39.53
11099;BME280;12223;42.650;23.364;2023-06-22T11:34:32;95076.44;;;30.90;39.47
11099;BME280;12223;42.650;23.364;2023-06-22T11:36:59;95087.03;;;30.91;39.85
11099;BME280;12223;42.650;23.364;2023-06-22T11:39:27;95085.13;;;31.16;38.97
11099;BME280;12223;42.650;23.364;2023-06-22T11:41:56;95087.56;;;31.45;39.33
11099;BME280;12223;42.650;23.364;2023-06-22T11:44:24;95082.00;;;31.66;38.15
11099;BME280;12223;42.650;23.364;2023-06-22T11:46:51;95073.06;;;31.81;38.09
11099;BME280;12223;42.650;23.364;2023-06-22T11:49:18;95072.47;;;31.11;37.43
11099;BME280;12223;42.650;23.364;2023-06-22T11:51:45;95070.81;;;30.50;38.98
11099;BME280;12223;42.650;23.364;2023-06-22T11:54:12;95069.63;;;30.71;40.30
11099;BME280;12223;42.650;23.364;2023-06-22T11:56:47;95061.53;;;30.87;38.83
11099;BME280;12223;42.650;23.364;2023-06-22T11:59:15;95063.59;;;31.02;38.88
11099;BME280;12223;42.650;23.364;2023-06-22T12:01:47;95065.47;;;31.10;39.07
11099;BME280;12223;42.650;23.364;2023-06-22T12:04:15;95059.75;;;31.15;37.56
11099;BME280;12223;42.650;23.364;2023-06-22T12:06:43;95062.50;;;31.55;39.74
11099;BME280;12223;42.650;23.364;2023-06-22T12:09:10;95067.09;;;31.64;39.13
11099;BME280;12223;42.650;23.364;2023-06-22T12:11:39;95058.25;;;31.30;37.72
11099;BME280;12223;42.650;23.364;2023-06-22T12:14:05;95054.34;;;31.43;37.97
11099;BME280;12223;42.650;23.364;2023-06-22T12:16:34;95069.72;;;31.60;37.76
11099;BME280;12223;42.650;23.364;2023-06-22T12:19:00;95069.81;;;31.64;37.51
11099;BME280;12223;42.650;23.364;2023-06-22T12:21:29;95082.63;;;31.11;38.64
11099;BME280;12223;42.650;23.364;2023-06-22T12:23:57;95090.47;;;30.55;42.93
11099;BME280;12223;42.650;23.364;2023-06-22T12:26:24;95098.59;;;29.48;47.61
11099;BME280;12223;42.650;23.364;2023-06-22T12:28:51;95098.19;;;28.70;51.59
11099;BME280;12223;42.650;23.364;2023-06-22T12:31:18;95080.38;;;28.43;54.02
11099;BME280;12223;42.650;23.364;2023-06-22T12:33:46;95101.41;;;28.55;54.56
11099;BME280;12223;42.650;23.364;2023-06-22T12:36:13;95109.59;;;28.46;54.99
11099;BME280;12223;42.650;23.364;2023-06-22T12:38:40;95120.00;;;28.44;54.47
11099;BME280;12223;42.650;23.364;2023-06-22T12:41:06;95128.13;;;28.53;56.97
11099;BME280;12223;42.650;23.364;2023-06-22T12:43:33;95130.50;;;28.54;60.28
11099;BME280;12223;42.650;23.364;2023-06-22T12:46:00;95130.13;;;28.18;63.54
11099;BME280;12223;42.650;23.364;2023-06-22T12:48:27;95132.00;;;27.66;68.96
11099;BME280;12223;42.650;23.364;2023-06-22T12:50:55;95130.53;;;27.42;75.61
11099;BME280;12223;42.650;23.364;2023-06-22T12:53:22;95126.00;;;27.20;79.86